Time;durP1;ratioP1;P1;durP2;ratioP2;P2;SDS_P1;SDS_P2;PMS_P1;PMS_P2;Temp;Humidity;BMP_temperature;BMP_pressure;BME280_temperature;BME280_humidity;BME280_pressure;Samples;Min_cycle;Max_cycle;Signal;HPM_P1;HPM_P2
2022/02/21 00:01:31;;;;;;;4.33;2.00;;;;;;;8.32;68.75;98653.67;1880516;94;29369;-65
2022/02/21 00:04:37;;;;;;;4.15;2.02;;;;;;;8.30;68.70;98655.58;1881171;94;37586;-65
2022/02/21 00:07:42;;;;;;;4.75;1.42;;;;;;;8.29;68.76;98648.53;1888340;94;28662;-65
2022/02/21 00:10:49;;;;;;;3.50;1.55;;;;;;;8.28;68.90;98637.48;1881057;94;31127;-64
2022/02/21 00:13:54;;;;;;;3.52;1.55;;;;;;;8.27;68.96;98639.80;1881022;94;32938;-64
2022/02/21 00:16:59;;;;;;;5.10;2.30;;;;;;;8.28;68.96;98624.64;1881172;94;29341;-67
2022/02/21 00:20:04;;;;;;;3.25;1.60;;;;;;;8.27;69.12;98617.12;1888641;94;27797;-67
2022/02/21 00:23:07;;;;;;;2.62;1.40;;;;;;;8.25;69.05;98609.70;1883838;94;28716;-65
2022/02/21 00:26:18;;;;;;;3.77;1.40;;;;;;;8.26;69.12;98600.75;1911108;92;32376;-67
2022/02/21 00:29:20;;;;;;;2.08;1.42;;;;;;;8.24;69.18;98593.32;1913926;92;33206;-67
2022/02/21 00:32:22;;;;;;;2.40;1.40;;;;;;;8.22;69.21;98588.56;1914062;92;29371;-68
2022/02/21 00:35:24;;;;;;;2.10;1.40;;;;;;;8.21;69.33;98580.19;1914199;92;27642;-67
2022/02/21 00:38:26;;;;;;;2.15;1.30;;;;;;;8.21;69.44;98578.85;1914122;92;28631;-67
2022/02/21 00:41:28;;;;;;;1.42;0.95;;;;;;;8.18;69.49;98570.59;1913726;92;31193;-66
2022/02/21 00:44:30;;;;;;;1.57;1.00;;;;;;;8.16;69.54;98560.50;1913475;92;33018;-65
2022/02/21 00:47:33;;;;;;;1.65;0.90;;;;;;;8.15;69.73;98556.58;1913789;92;29338;-63
2022/02/21 00:50:36;;;;;;;1.85;0.82;;;;;;;8.14;69.86;98548.20;1913986;92;27677;-65
2022/02/21 00:53:40;;;;;;;1.20;1.07;;;;;;;8.11;69.94;98540.44;1911136;92;28705;-64
2022/02/21 00:56:48;;;;;;;2.08;1.20;;;;;;;8.10;70.01;98534.73;1911372;92;31076;-66
2022/02/21 01:00:04;;;;;;;0.85;0.85;;;;;;;8.08;70.21;98528.64;1910910;92;33459;-67
2022/02/21 01:03:17;;;;;;;1.32;1.02;;;;;;;8.05;70.37;98519.88;1910970;92;30522;-64
2022/02/21 01:06:21;;;;;;;1.30;0.98;;;;;;;8.01;70.37;98507.71;1911110;92;27871;-64
2022/02/21 01:09:28;;;;;;;1.42;0.90;;;;;;;7.99;70.50;98506.12;1930756;91;30007;-65
2022/02/21 01:12:33;;;;;;;2.05;1.42;;;;;;;7.98;70.53;98494.58;1930618;91;31138;-65
2022/02/21 01:15:38;;;;;;;2.42;0.88;;;;;;;7.98;70.75;98487.08;1911300;92;33075;-63
2022/02/21 01:18:42;;;;;;;1.87;1.30;;;;;;;7.96;70.62;98483.16;1911440;92;29417;-66
2022/02/21 01:21:47;;;;;;;2.05;1.20;;;;;;;7.95;70.67;98473.95;1911563;92;27897;-63
2022/02/21 01:24:52;;;;;;;1.20;1.00;;;;;;;7.94;70.79;98475.77;1910616;92;28802;-63
2022/02/21 01:28:03;;;;;;;2.12;1.35;;;;;;;7.94;70.76;98472.23;1911047;91;31055;-62
2022/02/21 01:31:11;;;;;;;1.90;1.00;;;;;;;7.93;70.77;98462.06;1911055;92;34038;-65
2022/02/21 01:34:15;;;;;;;1.98;1.27;;;;;;;7.92;70.83;98456.36;1914034;92;29370;-66
2022/02/21 01:37:23;;;;;;;1.30;0.90;;;;;;;7.93;70.80;98450.53;1910561;92;27947;-64
2022/02/21 01:40:27;;;;;;;2.52;1.05;;;;;;;7.94;70.76;98450.44;1913845;92;28898;-66
2022/02/21 01:43:35;;;;;;;1.63;1.10;;;;;;;7.94;70.90;98437.11;1913772;92;31096;-65
2022/02/21 01:46:44;;;;;;;2.30;1.30;;;;;;;7.95;70.92;98437.95;1911015;92;33086;-66
2022/02/21 01:49:58;;;;;;;1.22;1.00;;;;;;;7.94;70.97;98421.12;1911252;92;30052;-66
2022/02/21 01:53:08;;;;;;;2.10;0.98;;;;;;;7.95;71.06;98408.63;1910980;92;27944;-66
2022/02/21 01:56:15;;;;;;;1.40;1.20;;;;;;;7.95;71.15;98385.95;1911558;92;28737;-65
2022/02/21 01:59:21;;;;;;;1.17;0.72;;;;;;;7.93;71.27;98358.08;1911697;92;31047;-66
2022/02/21 02:02:26;;;;;;;1.47;0.80;;;;;;;7.93;71.52;98349.22;1911638;92;32975;-65
2022/02/21 02:05:34;;;;;;;2.22;1.00;;;;;;;7.90;71.25;98327.14;1911657;92;29344;-66
2022/02/21 02:08:46;;;;;;;1.37;0.98;;;;;;;7.89;71.29;98328.09;1910866;92;27797;-66
2022/02/21 02:11:52;;;;;;;1.67;1.22;;;;;;;7.88;71.43;98318.39;1910717;92;28738;-69
2022/02/21 02:14:54;;;;;;;1.52;0.90;;;;;;;7.87;71.41;98311.84;1913682;92;31087;-68
2022/02/21 02:17:56;;;;;;;1.25;0.93;;;;;;;7.86;71.41;98309.64;1913321;92;33056;-67
2022/02/21 02:20:58;;;;;;;1.45;0.88;;;;;;;7.85;71.30;98293.30;1913412;92;29316;-68
2022/02/21 02:24:00;;;;;;;1.02;0.70;;;;;;;7.86;71.22;98287.48;1913450;92;27829;-69
2022/02/21 02:27:02;;;;;;;0.78;0.78;;;;;;;7.85;71.18;98280.44;1891141;90;28678;-67
2022/02/21 02:30:07;;;;;;;0.80;0.80;;;;;;;7.84;71.17;98280.94;1914106;92;31091;-69
2022/02/21 02:33:09;;;;;;;1.00;0.88;;;;;;;7.82;71.12;98274.86;1914262;92;33012;-66
2022/02/21 02:36:12;;;;;;;1.82;0.60;;;;;;;7.81;71.27;98275.81;1914133;92;29299;-67
2022/02/21 02:39:15;;;;;;;1.27;0.85;;;;;;;7.81;71.12;98266.95;1913929;92;27649;-66
2022/02/21 02:42:19;;;;;;;0.62;0.62;;;;;;;7.80;71.09;98262.12;1914068;92;28662;-66
2022/02/21 02:45:23;;;;;;;0.70;0.47;;;;;;;7.81;71.06;98261.16;1913921;92;30657;-66
2022/02/21 02:48:26;;;;;;;1.12;0.70;;;;;;;7.83;70.98;98249.91;1890214;94;33100;-65
2022/02/21 02:51:30;;;;;;;0.95;0.80;;;;;;;7.85;70.90;98245.32;1882504;94;27785;-66
2022/02/21 02:54:50;;;;;;;1.30;0.90;;;;;;;7.87;70.81;98234.54;1883215;94;27743;-67
2022/02/21 02:57:59;;;;;;;1.25;0.70;;;;;;;7.88;70.63;98227.75;1867487;94;29515;-67
2022/02/21 03:01:01;;;;;;;1.05;0.88;;;;;;;7.91;70.63;98221.36;1883708;93;31039;-66
2022/02/21 03:04:04;;;;;;;1.00;0.72;;;;;;;7.93;70.58;98216.78;1914098;92;32962;-67
2022/02/21 03:07:06;;;;;;;1.00;0.65;;;;;;;7.95;70.36;98199.32;1914117;92;29430;-66
2022/02/21 03:10:09;;;;;;;1.55;0.55;;;;;;;7.98;70.36;98190.61;1914263;92;27630;-66
2022/02/21 03:13:11;;;;;;;0.70;0.68;;;;;;;8.01;70.36;98184.22;1914179;92;28674;-67
2022/02/21 03:16:14;;;;;;;2.35;0.88;;;;;;;8.07;70.47;98182.42;1914117;92;31093;-67
2022/02/21 03:19:16;;;;;;;0.95;0.60;;;;;;;8.10;70.46;98173.36;1914171;92;33045;-67
2022/02/21 03:22:18;;;;;;;2.10;0.60;;;;;;;8.12;70.52;98162.07;1914168;92;29360;-67
2022/02/21 03:25:23;;;;;;;1.92;0.90;;;;;;;8.14;70.80;98160.14;1914294;92;27526;-68
2022/02/21 03:28:31;;;;;;;;;;;;;;;8.14;70.88;98148.14;1913619;92;29682;-65
2022/02/21 03:31:39;;;;;;;3.12;0.90;;;;;;;8.13;70.89;98128.64;1911546;92;31084;-65
2022/02/21 03:34:49;;;;;;;1.45;1.00;;;;;;;8.12;71.15;98129.60;1911476;92;32969;-64
2022/02/21 03:37:57;;;;;;;2.77;0.93;;;;;;;8.11;71.13;98128.39;1911206;92;29946;-66
2022/02/21 03:41:03;;;;;;;4.12;1.20;;;;;;;8.12;71.19;98138.06;1911506;92;27901;-65
2022/02/21 03:44:07;;;;;;;2.62;1.37;;;;;;;8.13;71.21;98119.77;1911583;92;28784;-68
2022/02/21 03:47:09;;;;;;;1.27;1.12;;;;;;;8.13;71.24;98115.77;1914335;92;31087;-67
2022/02/21 03:50:12;;;;;;;4.62;1.00;;;;;;;8.13;71.14;98107.77;1914129;92;33012;-67
2022/02/21 03:53:20;;;;;;;2.00;1.45;;;;;;;8.14;71.18;98107.67;1914266;92;29338;-65
2022/02/21 03:56:34;;;;;;;1.72;1.10;;;;;;;8.16;71.06;98104.88;1911272;92;27979;-64
2022/02/21 03:59:40;;;;;;;1.62;1.05;;;;;;;8.17;70.96;98098.58;1911240;92;29117;-64
2022/02/21 04:02:44;;;;;;;1.40;1.00;;;;;;;8.19;70.87;98092.16;1911782;92;31039;-65
2022/02/21 04:05:48;;;;;;;2.90;1.00;;;;;;;8.23;70.73;98077.26;1911546;92;32973;-69
2022/02/21 04:08:51;;;;;;;2.23;0.90;;;;;;;8.25;70.57;98089.53;1913892;92;29340;-67
2022/02/21 04:11:53;;;;;;;2.50;0.98;;;;;;;8.29;70.40;98071.47;1914141;92;27617;-67
2022/02/21 04:14:56;;;;;;;3.35;1.37;;;;;;;8.32;70.24;98072.57;1913589;92;28766;-67
2022/02/21 04:18:05;;;;;;;1.05;0.70;;;;;;;8.36;70.05;98063.34;1910071;92;31464;-68
2022/02/21 04:21:08;;;;;;;1.27;0.80;;;;;;;8.38;69.93;98064.08;1914183;92;32965;-68
2022/02/21 04:24:10;;;;;;;1.67;0.85;;;;;;;8.41;69.72;98057.18;1914068;92;29345;-64
2022/02/21 04:27:12;;;;;;;1.45;0.72;;;;;;;8.46;69.66;98058.15;1895165;92;27704;-67
2022/02/21 04:30:18;;;;;;;0.80;0.70;;;;;;;8.47;69.34;98042.04;1957441;90;28704;-67
2022/02/21 04:33:21;;;;;;;0.75;0.50;;;;;;;8.50;69.43;98035.64;1957694;90;31221;-66
2022/02/21 04:36:23;;;;;;;1.67;0.90;;;;;;;8.51;69.16;98033.34;1958094;90;32913;-68
2022/02/21 04:39:25;;;;;;;2.65;0.82;;;;;;;8.50;68.97;98013.82;1958182;90;29418;-68
2022/02/21 04:42:28;;;;;;;1.72;0.80;;;;;;;8.51;69.11;98020.86;1957979;90;27731;-68
2022/02/21 04:45:30;;;;;;;2.33;1.02;;;;;;;8.51;69.00;98023.53;1958205;90;28649;-67
2022/02/21 04:48:32;;;;;;;1.62;0.68;;;;;;;8.51;69.00;98008.85;1958170;90;31035;-68
2022/02/21 04:51:34;;;;;;;1.25;0.90;;;;;;;8.53;68.95;98002.52;1958149;90;32973;-68
2022/02/21 04:54:36;;;;;;;2.42;0.85;;;;;;;8.55;68.96;98004.58;1957951;90;29405;-68
2022/02/21 04:57:41;;;;;;;6.58;1.00;;;;;;;8.57;68.86;98002.65;1958248;90;27715;-68
2022/02/21 05:00:43;;;;;;;3.62;1.00;;;;;;;8.59;68.81;97989.56;1958096;90;28723;-69
2022/02/21 05:03:45;;;;;;;1.12;0.95;;;;;;;8.61;68.76;97984.09;1958148;90;31265;-67
2022/02/21 05:06:47;;;;;;;2.90;1.00;;;;;;;8.63;68.63;97980.33;1958115;90;32947;-67
2022/02/21 05:09:49;;;;;;;2.58;1.32;;;;;;;8.65;68.51;97970.38;1958226;90;29328;-66
2022/02/21 05:12:52;;;;;;;1.52;1.10;;;;;;;8.69;68.34;97970.14;1958396;90;27512;-66
2022/02/21 05:15:54;;;;;;;2.70;1.00;;;;;;;8.73;68.34;97958.25;1958262;90;28701;-66
2022/02/21 05:18:56;;;;;;;2.55;1.27;;;;;;;8.76;68.22;97962.02;1958300;90;31032;-67
2022/02/21 05:21:58;;;;;;;1.22;1.00;;;;;;;8.79;68.17;97955.08;1958272;90;32894;-67
2022/02/21 05:25:02;;;;;;;2.85;1.20;;;;;;;8.83;68.02;97939.68;1958343;90;29365;-67
2022/02/21 05:28:10;;;;;;;3.37;1.42;;;;;;;8.86;67.90;97934.06;1959148;90;27644;-68
2022/02/21 05:31:15;;;;;;;2.17;1.00;;;;;;;8.90;67.85;97940.86;1961485;90;28725;-67
2022/02/21 05:34:17;;;;;;;;;;;;;;;8.92;67.61;97930.91;1966112;90;31076;-68
2022/02/21 05:37:19;;;;;;;4.05;1.45;;;;;;;8.95;67.54;97934.67;1963484;90;33037;-66
2022/02/21 05:40:32;;;;;;;2.67;1.32;;;;;;;8.95;67.40;97938.68;1962240;90;29780;-67
2022/02/21 05:43:41;;;;;;;1.37;1.02;;;;;;;8.96;67.42;97929.20;1961320;90;27954;-67
2022/02/21 05:46:46;;;;;;;2.50;1.12;;;;;;;8.97;67.32;97936.23;1961355;90;28734;-68
2022/02/21 05:49:48;;;;;;;2.95;1.30;;;;;;;8.99;67.28;97934.80;1964599;90;31084;-66
2022/02/21 05:52:57;;;;;;;1.40;0.98;;;;;;;9.02;67.20;97926.51;1961669;90;32966;-68
2022/02/21 05:56:09;;;;;;;4.20;1.40;;;;;;;9.05;67.18;97932.11;1961553;90;29879;-68
2022/02/21 05:59:12;;;;;;;6.22;1.55;;;;;;;9.05;67.13;97927.59;1964646;90;27953;-68
2022/02/21 06:02:14;;;;;;;1.37;0.90;;;;;;;9.08;67.04;97930.53;1964475;90;28667;-68
2022/02/21 06:05:18;;;;;;;1.92;1.20;;;;;;;9.10;66.99;97927.24;1964342;90;31267;-67
2022/02/21 06:08:20;;;;;;;1.70;1.60;;;;;;;9.12;66.95;97925.27;1963982;90;33013;-67
2022/02/21 06:11:22;;;;;;;3.30;2.30;;;;;;;9.14;66.95;97932.67;1964349;90;29315;-68
2022/02/21 06:14:24;;;;;;;2.52;1.20;;;;;;;9.16;66.78;97936.58;1964485;90;27863;-66
2022/02/21 06:17:28;;;;;;;2.05;1.10;;;;;;;9.19;66.86;97945.64;1964254;90;28657;-68
2022/02/21 06:20:30;;;;;;;2.52;1.05;;;;;;;9.21;66.91;97941.89;1964379;90;31008;-69
2022/02/21 06:23:32;;;;;;;1.82;1.00;;;;;;;9.23;66.91;97941.28;1964366;90;33349;-68
2022/02/21 06:26:35;;;;;;;2.58;1.20;;;;;;;9.25;66.79;97946.02;1964089;90;29386;-68
2022/02/21 06:29:37;;;;;;;2.75;1.40;;;;;;;9.27;66.96;97956.56;1964198;90;27600;-66
2022/02/21 06:32:39;;;;;;;3.33;1.70;;;;;;;9.28;67.03;97973.80;1964358;90;28709;-66
2022/02/21 06:35:43;;;;;;;3.87;1.52;;;;;;;9.31;67.13;97993.22;1964455;90;31018;-67
2022/02/21 06:38:46;;;;;;;3.72;1.77;;;;;;;9.28;67.59;98036.58;1964199;90;33022;-68
2022/02/21 06:41:49;;;;;;;5.50;1.77;;;;;;;9.25;68.34;98084.08;1964479;90;29331;-68
2022/02/21 06:44:53;;;;;;;1.72;1.00;;;;;;;9.17;68.12;98060.65;1964331;90;27968;-68
2022/02/21 06:47:59;;;;;;;1.37;0.80;;;;;;;9.09;68.16;98047.91;1964324;90;28682;-67
2022/02/21 06:51:01;;;;;;;0.70;0.50;;;;;;;8.97;67.49;98053.73;1964279;90;31140;-65
2022/02/21 06:54:05;;;;;;;1.10;0.50;;;;;;;8.90;67.30;98058.34;1964074;90;33004;-64
2022/02/21 06:57:09;;;;;;;0.98;0.80;;;;;;;8.81;67.06;98063.46;1964485;90;29365;-65
2022/02/21 07:00:14;;;;;;;0.85;0.70;;;;;;;8.75;66.71;98081.28;1964498;90;27837;-65
2022/02/21 07:03:17;;;;;;;2.10;1.05;;;;;;;8.69;66.37;98091.09;1964566;90;28660;-65
2022/02/21 07:06:20;;;;;;;1.35;0.72;;;;;;;8.65;66.37;98081.14;1964410;90;31036;-64
2022/02/21 07:09:22;;;;;;;1.62;0.90;;;;;;;8.62;66.32;98088.05;1964319;90;33060;-64
2022/02/21 07:12:24;;;;;;;2.15;1.12;;;;;;;8.63;65.93;98080.91;1964392;90;29357;-65
2022/02/21 07:15:28;;;;;;;1.80;1.15;;;;;;;8.62;65.97;98080.05;1964213;90;27622;-64
2022/02/21 07:18:30;;;;;;;1.35;1.25;;;;;;;8.64;65.78;98093.29;1964349;90;28666;-64
2022/02/21 07:21:33;;;;;;;6.28;4.05;;;;;;;8.65;65.69;98103.00;1946689;90;31053;-64
2022/02/21 07:24:35;;;;;;;4.58;2.77;;;;;;;8.69;65.86;98123.63;1966944;90;33035;-64
2022/02/21 07:27:48;;;;;;;1.62;1.00;;;;;;;8.69;65.63;98140.47;1964379;90;29332;-65
2022/02/21 07:30:53;;;;;;;0.98;0.60;;;;;;;8.68;65.26;98140.60;1956142;90;28164;-65
2022/02/21 07:33:57;;;;;;;1.42;0.70;;;;;;;8.67;65.03;98137.09;1958125;90;28708;-66
2022/02/21 07:37:00;;;;;;;1.60;0.80;;;;;;;8.64;64.34;98162.69;1937436;90;31126;-66
2022/02/21 07:40:04;;;;;;;1.75;0.75;;;;;;;8.63;63.98;98163.15;1958202;90;32973;-66
2022/02/21 07:43:06;;;;;;;1.92;0.72;;;;;;;8.63;64.24;98161.81;1958208;90;29361;-65
2022/02/21 07:46:10;;;;;;;2.65;0.70;;;;;;;8.60;64.19;98169.22;1958252;90;27571;-66
2022/02/21 07:49:13;;;;;;;2.27;0.70;;;;;;;8.58;64.11;98177.35;1957946;90;28729;-67
2022/02/21 07:52:15;;;;;;;2.87;1.02;;;;;;;8.54;63.51;98185.22;1937579;90;31061;-65
2022/02/21 07:55:17;;;;;;;1.02;0.72;;;;;;;8.51;63.53;98186.77;1958083;90;33137;-66
2022/02/21 07:58:20;;;;;;;2.10;0.70;;;;;;;8.46;63.58;98188.43;1958227;90;29350;-66
2022/02/21 08:01:22;;;;;;;2.90;0.90;;;;;;;8.41;63.16;98190.58;1958186;90;27617;-66
2022/02/21 08:04:26;;;;;;;2.52;1.50;;;;;;;8.39;63.24;98198.34;1958152;90;28659;-65
2022/02/21 08:07:28;;;;;;;1.37;1.02;;;;;;;8.30;62.69;98190.55;1958152;90;31054;-66
2022/02/21 08:10:31;;;;;;;2.17;1.00;;;;;;;8.28;62.89;98193.80;1957884;90;32977;-66
2022/02/21 08:13:33;;;;;;;3.52;2.08;;;;;;;8.26;62.94;98199.73;1958079;90;29330;-66
2022/02/21 08:16:35;;;;;;;2.12;1.05;;;;;;;8.24;62.75;98189.66;1958022;90;27668;-67
2022/02/21 08:19:38;;;;;;;2.33;1.40;;;;;;;8.19;62.59;98183.33;1958152;90;28758;-67
2022/02/21 08:22:41;;;;;;;2.87;1.20;;;;;;;8.16;62.45;98167.55;1958117;90;31130;-68
2022/02/21 08:25:44;;;;;;;3.95;1.00;;;;;;;8.12;62.46;98177.61;1958115;90;32978;-68
2022/02/21 08:28:46;;;;;;;3.00;1.27;;;;;;;8.10;62.03;98189.36;1958368;90;29395;-67
2022/02/21 08:31:49;;;;;;;1.27;0.95;;;;;;;8.03;62.24;98178.27;1964442;90;27602;-67
2022/02/21 08:34:51;;;;;;;2.27;1.27;;;;;;;7.99;62.31;98166.15;1964295;90;28657;-67
2022/02/21 08:37:54;;;;;;;3.05;1.77;;;;;;;7.96;62.35;98182.36;1964004;90;31145;-67
2022/02/21 08:40:59;;;;;;;5.47;1.77;;;;;;;7.92;61.80;98172.41;1964148;90;32981;-67
2022/02/21 08:44:01;;;;;;;2.45;0.95;;;;;;;7.87;62.02;98182.55;1964430;90;36741;-68
2022/02/21 08:47:06;;;;;;;1.82;1.40;;;;;;;7.83;61.74;98192.59;1964367;90;27721;-68
2022/02/21 08:50:10;;;;;;;3.00;0.88;;;;;;;7.83;61.97;98203.27;1964514;90;28671;-67
2022/02/21 08:53:13;;;;;;;1.90;1.40;;;;;;;7.82;61.47;98208.22;1964507;90;31058;-69
2022/02/21 08:56:17;;;;;;;3.85;1.22;;;;;;;7.85;61.74;98209.34;1964306;90;33062;-67
2022/02/21 08:59:19;;;;;;;1.60;0.88;;;;;;;7.94;61.68;98210.95;1964372;90;29331;-66
2022/02/21 09:02:22;;;;;;;6.15;1.10;;;;;;;8.08;61.66;98211.29;1964108;90;27934;-68
2022/02/21 09:05:25;;;;;;;3.05;0.88;;;;;;;8.21;61.72;98224.08;1964340;90;28668;-67
2022/02/21 09:08:31;;;;;;;3.55;1.05;;;;;;;8.38;61.20;98225.98;1964313;90;31053;-66
2022/02/21 09:11:31;;;;;;;1.35;1.00;;;;;;;8.48;61.17;98225.22;1963961;90;32986;-66
2022/02/21 09:14:34;;;;;;;1.55;0.90;;;;;;;8.61;61.22;98230.47;1964377;90;29376;-68
2022/02/21 09:17:37;;;;;;;4.12;1.10;;;;;;;8.68;60.91;98252.25;1964428;90;27523;-67
2022/02/21 09:20:39;;;;;;;3.95;1.35;;;;;;;8.69;60.82;98279.28;1964384;90;28666;-66
2022/02/21 09:23:41;;;;;;;3.27;1.50;;;;;;;8.70;61.01;98285.48;1946720;90;31020;-67
2022/02/21 09:26:43;;;;;;;1.72;1.00;;;;;;;8.71;60.80;98298.70;1963861;90;33042;-67
2022/02/21 09:29:47;;;;;;;3.40;1.50;;;;;;;8.71;60.90;98302.71;1963794;90;29241;-67
2022/02/21 09:32:50;;;;;;;2.42;1.42;;;;;;;8.72;61.21;98305.75;1964008;90;27935;-67
2022/02/21 09:35:52;;;;;;;5.03;2.77;;;;;;;8.79;61.26;98319.03;1964250;90;28693;-66
2022/02/21 09:38:55;;;;;;;9.68;4.10;;;;;;;8.84;61.40;98321.84;1964281;90;31039;-66
2022/02/21 09:41:59;;;;;;;8.55;5.10;;;;;;;8.85;60.87;98328.89;1946742;90;32587;-66
2022/02/21 09:45:02;;;;;;;3.33;1.42;;;;;;;8.88;60.67;98328.17;1964351;90;29314;-66
2022/02/21 09:48:05;;;;;;;2.10;1.10;;;;;;;8.87;59.75;98336.27;1964178;90;27721;-67
2022/02/21 09:51:09;;;;;;;2.37;1.12;;;;;;;8.82;59.65;98352.64;1964457;90;28665;-67
2022/02/21 09:54:14;;;;;;;6.45;1.55;;;;;;;8.80;59.34;98350.56;1964319;90;31118;-67
2022/02/21 09:57:22;;;;;;;;;;;;;;;8.78;58.80;98368.52;1964158;90;32973;-67
2022/02/21 10:00:24;;;;;;;1.50;1.15;;;;;;;8.73;58.53;98382.20;1964586;90;29396;-68
2022/02/21 10:03:43;;;;;;;3.30;1.50;;;;;;;8.67;58.53;98389.34;1964601;90;27752;-68
2022/02/21 10:06:45;;;;;;;4.72;1.60;;;;;;;8.54;58.72;98400.05;1964279;90;28797;-67
2022/02/21 10:09:54;;;;;;;3.45;0.98;;;;;;;8.45;58.82;98420.67;1945521;90;31098;-66
2022/02/21 10:12:58;;;;;;;4.47;1.10;;;;;;;8.28;59.00;98421.39;1946922;90;32983;-67
2022/02/21 10:16:02;;;;;;;6.92;1.35;;;;;;;8.10;59.19;98432.88;1964412;90;29338;-68
2022/02/21 10:19:20;;;;;;;6.90;2.80;;;;;;;7.97;59.38;98436.88;1964239;90;27831;-66
2022/02/21 10:22:23;;;;;;;7.87;3.05;;;;;;;7.87;60.05;98425.98;1964307;90;28883;-64
2022/02/21 10:25:25;;;;;;;7.30;3.17;;;;;;;7.88;60.92;98426.37;1964464;90;31050;-67
2022/02/21 10:28:40;;;;;;;10.53;6.17;;;;;;;7.93;61.57;98431.41;1964250;90;33118;-68
2022/02/21 10:31:43;;;;;;;10.55;3.87;;;;;;;7.92;61.52;98435.03;1926362;91;29409;-66
2022/02/21 10:34:46;;;;;;;11.08;4.95;;;;;;;7.93;61.92;98442.07;1941289;91;27650;-66
2022/02/21 10:37:59;;;;;;;3.08;1.70;;;;;;;8.05;61.35;98435.01;1941286;91;28790;-69
2022/02/21 10:41:08;;;;;;;7.05;3.92;;;;;;;8.24;61.08;98427.93;1941070;91;30903;-66
2022/02/21 10:44:20;;;;;;;3.85;1.85;;;;;;;8.48;61.00;98441.38;1940835;91;33001;-66
2022/02/21 10:47:23;;;;;;;3.37;1.40;;;;;;;8.64;60.22;98474.48;1922914;91;29348;-66
2022/02/21 10:50:29;;;;;;;2.45;1.15;;;;;;;8.72;59.66;98484.61;1939812;91;27824;-66
2022/02/21 10:53:47;;;;;;;10.45;5.22;;;;;;;8.77;58.88;98478.97;1923036;91;28659;-65
2022/02/21 10:56:50;;;;;;;2.92;1.30;;;;;;;8.76;58.83;98472.77;1939715;90;31050;-65
2022/02/21 10:59:54;;;;;;;3.45;1.50;;;;;;;8.74;58.44;98483.19;1939775;91;33152;-70
2022/02/21 11:02:57;;;;;;;3.87;2.00;;;;;;;8.70;58.33;98493.70;1922993;91;29329;-67
2022/02/21 11:06:04;;;;;;;5.03;1.77;;;;;;;8.63;58.12;98485.28;1936062;91;27899;-66
2022/02/21 11:09:09;;;;;;;5.22;1.77;;;;;;;8.54;57.28;98494.80;1942983;91;28678;-68
2022/02/21 11:12:14;;;;;;;6.22;1.75;;;;;;;8.42;57.62;98507.64;1923672;91;32376;-65
2022/02/21 11:15:16;;;;;;;4.12;1.75;;;;;;;8.40;57.95;98513.56;1940699;91;33022;-68
2022/02/21 11:18:21;;;;;;;7.20;2.33;;;;;;;8.41;57.17;98524.61;1941086;91;29342;-66
2022/02/21 11:21:23;;;;;;;4.00;1.65;;;;;;;8.38;57.38;98532.82;1941224;91;27642;-66
2022/02/21 11:24:30;;;;;;;7.30;2.20;;;;;;;8.35;57.02;98535.23;1940901;91;28708;-65
2022/02/21 11:27:51;;;;;;;11.60;4.15;;;;;;;8.44;57.15;98532.41;1941106;91;31054;-69
2022/02/21 11:30:58;;;;;;;10.10;3.17;;;;;;;8.42;56.45;98520.98;1945390;90;32987;-69
2022/02/21 11:34:09;;;;;;;13.00;6.10;;;;;;;8.42;56.92;98518.31;1933666;91;30819;-69
2022/02/21 11:37:26;;;;;;;5.08;1.55;;;;;;;8.37;56.53;98514.61;1951540;90;27872;-69
2022/02/21 11:40:31;;;;;;;4.78;1.47;;;;;;;8.36;56.27;98523.57;1889185;93;28740;-68
2022/02/21 11:43:47;;;;;;;7.80;1.57;;;;;;;8.43;56.14;98521.36;1889310;94;31030;-68
2022/02/21 11:46:50;;;;;;;6.58;1.75;;;;;;;8.48;56.05;98505.89;1889050;94;33009;-67
2022/02/21 11:49:58;;;;;;;5.25;1.37;;;;;;;8.40;55.32;98530.41;1889060;94;29392;-67
2022/02/21 11:53:27;;;;;;;3.40;1.50;;;;;;;8.33;55.81;98530.48;1889592;94;28013;-65
2022/02/21 11:56:53;;;;;;;5.40;1.70;;;;;;;8.36;56.07;98540.45;1867187;95;28898;-67
2022/02/21 11:59:55;;;;;;;8.15;1.98;;;;;;;8.46;55.74;98536.66;1795292;99;31006;-66
2022/02/21 12:03:16;;;;;;;1.57;1.10;;;;;;;8.60;55.37;98536.21;1804457;97;32929;-69
2022/02/21 12:06:23;;;;;;;4.30;1.70;;;;;;;8.69;55.06;98553.40;1807281;98;29336;-67
2022/02/21 12:09:28;;;;;;;8.30;1.87;;;;;;;8.80;55.00;98552.16;1779918;99;27689;-69
2022/02/21 12:12:31;;;;;;;4.28;1.62;;;;;;;8.93;54.60;98553.02;1791299;98;33949;-65
2022/02/21 12:15:33;;;;;;;4.60;1.45;;;;;;;9.04;54.44;98534.86;1777349;98;30985;-67
2022/02/21 12:18:51;;;;;;;4.47;0.88;;;;;;;9.17;54.10;98544.69;1858405;95;32982;-65
2022/02/21 12:22:15;;;;;;;6.28;1.30;;;;;;;9.16;52.27;98542.48;1860786;95;29428;-68
2022/02/21 12:25:19;;;;;;;6.47;2.20;;;;;;;9.22;52.58;98538.03;1862612;95;28039;-64
2022/02/21 12:28:24;;;;;;;10.67;1.47;;;;;;;9.33;52.40;98541.73;1863628;95;28613;-65
2022/02/21 12:31:26;;;;;;;6.08;1.47;;;;;;;9.35;50.71;98545.16;1836956;96;31053;-65
2022/02/21 12:34:33;;;;;;;2.83;0.80;;;;;;;9.24;51.68;98546.80;1839043;96;33035;-65
2022/02/21 12:37:36;;;;;;;4.60;1.72;;;;;;;9.18;50.96;98552.58;1924309;92;29337;-65
2022/02/21 12:41:07;;;;;;;3.52;1.30;;;;;;;9.06;51.38;98550.80;1899212;93;27921;-68
2022/02/21 12:44:15;;;;;;;3.65;1.30;;;;;;;9.10;51.42;98549.62;1889191;94;27946;-70
2022/02/21 12:47:18;;;;;;;2.77;1.50;;;;;;;9.07;51.13;98543.99;1899419;93;31209;-64
2022/02/21 12:50:25;;;;;;;3.27;1.52;;;;;;;9.08;51.02;98548.38;1877790;93;32995;-65
2022/02/21 12:53:28;;;;;;;3.12;1.30;;;;;;;9.18;50.62;98530.36;1899229;93;29329;-65
2022/02/21 12:56:44;;;;;;;3.17;1.05;;;;;;;9.30;50.49;98543.28;1947808;91;27903;-66
2022/02/21 12:59:50;;;;;;;4.70;2.10;;;;;;;9.39;50.82;98556.00;1899249;93;28680;-65
2022/02/21 13:02:55;;;;;;;2.33;1.45;;;;;;;9.51;51.48;98556.92;1896656;93;31054;-66
2022/02/21 13:06:00;;;;;;;2.98;1.37;;;;;;;9.71;51.63;98556.78;1896636;93;33000;-68
2022/02/21 13:09:03;;;;;;;;;;;;;;;9.80;51.35;98545.87;1950419;91;29469;-65
2022/02/21 13:12:19;;;;;;;6.92;1.80;;;;;;;9.69;51.15;98533.30;1948027;91;27719;-65
2022/02/21 13:15:27;;;;;;;2.92;1.07;;;;;;;9.50;50.98;98548.03;1874965;93;28727;-67
2022/02/21 13:18:54;;;;;;;4.30;1.87;;;;;;;9.32;51.08;98546.70;1948151;91;32986;-64
2022/02/21 13:22:00;;;;;;;5.45;1.75;;;;;;;9.19;51.22;98540.05;1907046;92;32986;-66
2022/02/21 13:25:06;;;;;;;4.15;1.55;;;;;;;9.04;51.36;98536.20;1958809;90;29364;-63
2022/02/21 13:28:19;;;;;;;6.58;1.47;;;;;;;9.00;51.34;98540.08;1958744;90;27697;-64
2022/02/21 13:31:26;;;;;;;4.25;1.10;;;;;;;8.97;50.46;98545.63;1958071;90;28813;-64
2022/02/21 13:34:47;;;;;;;3.87;1.32;;;;;;;8.92;49.27;98542.42;1958103;90;31124;-63
2022/02/21 13:37:51;;;;;;;2.75;1.10;;;;;;;8.86;49.66;98553.53;1958076;90;33058;-63
2022/02/21 13:41:04;;;;;;;2.35;1.17;;;;;;;8.78;48.98;98554.07;1957737;90;29316;-65
2022/02/21 13:44:25;;;;;;;3.77;1.22;;;;;;;8.77;48.71;98549.23;1958092;90;27937;-64
2022/02/21 13:47:30;;;;;;;3.67;1.40;;;;;;;8.76;48.53;98540.00;1958462;90;28655;-66
2022/02/21 13:50:54;;;;;;;4.17;1.37;;;;;;;8.84;49.25;98540.30;1958386;90;31038;-65
2022/02/21 13:53:58;;;;;;;2.85;1.10;;;;;;;9.05;49.40;98545.91;1958056;90;33037;-65
2022/02/21 13:57:16;;;;;;;3.75;1.37;;;;;;;9.37;49.22;98541.39;1958403;90;29330;-65
2022/02/21 14:00:35;;;;;;;3.25;1.12;;;;;;;9.55;49.22;98539.67;1958440;90;27847;-65
2022/02/21 14:03:56;;;;;;;3.42;1.35;;;;;;;9.63;48.26;98536.42;1958335;90;28677;-65
2022/02/21 14:07:07;;;;;;;4.30;1.02;;;;;;;9.65;48.54;98546.53;1957541;90;31085;-66
2022/02/21 14:10:15;;;;;;;2.75;1.42;;;;;;;9.56;47.43;98548.93;1958241;90;32979;-73
2022/02/21 14:13:18;;;;;;;5.92;1.30;;;;;;;9.45;47.29;98544.83;1958177;90;29317;-63
2022/02/21 14:16:21;;;;;;;2.20;0.95;;;;;;;9.35;47.22;98541.98;1937407;90;27692;-70
2022/02/21 14:19:30;;;;;;;;;;;;;;;9.19;46.38;98548.06;1957608;90;28103;-63
2022/02/21 14:22:32;;;;;;;1.87;0.90;;;;;;;9.04;46.85;98546.88;1958321;90;31039;-62
2022/02/21 14:25:41;;;;;;;2.47;1.20;;;;;;;8.89;46.71;98565.33;1954954;90;33391;-61
2022/02/21 14:28:48;;;;;;;3.05;1.32;;;;;;;8.74;46.63;98562.78;1955123;90;29381;-64
2022/02/21 14:31:50;;;;;;;3.70;1.60;;;;;;;8.65;46.69;98550.09;1960522;90;27753;-64
2022/02/21 14:34:52;;;;;;;4.62;1.75;;;;;;;8.60;46.92;98562.44;1966681;90;28841;-65
2022/02/21 14:37:54;;;;;;;4.50;1.60;;;;;;;8.62;47.07;98559.65;1964137;90;31208;-69
2022/02/21 14:40:58;;;;;;;4.22;1.25;;;;;;;8.62;47.09;98556.48;1964006;90;33565;-69
2022/02/21 14:44:05;;;;;;;5.58;1.62;;;;;;;8.57;47.23;98556.44;1964096;90;29363;-63
2022/02/21 14:47:07;;;;;;;2.72;1.67;;;;;;;8.49;47.27;98560.51;1964178;90;27920;-65